Scenic, South Dakota
Current Conditions -  °F | °C
As of 5:52 AM on Wednesday 22 Oct 2014 (Local Time) from KRAP Reporting Station
Clear Clear  
Wind Chill: 55°   Ceiling: Unl
Heat Index: 55°   Visibility: 10mi
Dew Point: 33°   Wind: 15mph
Humidity: 43%   Direction: 340°NNW
Pressure: 29.91"   Gusts: 26mph
Location:  43.78°N, 102.56°W
Report Text: KRAP 221152Z AUTO 34013G23KT 10SM CLR 13/01 A2991 RMK AO2 SLP114 T01280006 10194 20128 53013
Loading
Personal Weather Stations






























Interactive Weather Map New forecast layout! Learn more

10-Day Weather Forecast

Advertisements
Track Severe Weather on mobile